sensor_id;sensor_type;location;lat;lon;timestamp;P1;durP1;ratioP1;P2;durP2;ratioP2
76425;SDS011;65258;42.680;23.266;2022-12-20T00:00:23;12.45;;;5.90;;
76425;SDS011;65258;42.680;23.266;2022-12-20T00:02:48;10.38;;;5.00;;
76425;SDS011;65258;42.680;23.266;2022-12-20T00:05:14;10.18;;;5.30;;
76425;SDS011;65258;42.680;23.266;2022-12-20T00:07:39;13.50;;;5.50;;
76425;SDS011;65258;42.680;23.266;2022-12-20T00:10:05;13.35;;;6.00;;
76425;SDS011;65258;42.680;23.266;2022-12-20T00:12:31;11.20;;;4.97;;
76425;SDS011;65258;42.680;23.266;2022-12-20T00:14:57;10.10;;;5.57;;
76425;SDS011;65258;42.680;23.266;2022-12-20T00:17:22;9.98;;;5.07;;
76425;SDS011;65258;42.680;23.266;2022-12-20T00:19:48;10.52;;;5.53;;
76425;SDS011;65258;42.680;23.266;2022-12-20T00:22:13;10.05;;;5.35;;
76425;SDS011;65258;42.680;23.266;2022-12-20T00:24:39;9.48;;;4.50;;
76425;SDS011;65258;42.680;23.266;2022-12-20T00:27:04;11.02;;;5.68;;
76425;SDS011;65258;42.680;23.266;2022-12-20T00:29:30;11.70;;;5.70;;
76425;SDS011;65258;42.680;23.266;2022-12-20T00:31:56;9.75;;;5.07;;
76425;SDS011;65258;42.680;23.266;2022-12-20T00:34:21;14.63;;;5.90;;
76425;SDS011;65258;42.680;23.266;2022-12-20T00:36:47;13.13;;;3.72;;
76425;SDS011;65258;42.680;23.266;2022-12-20T00:39:12;9.30;;;4.18;;
76425;SDS011;65258;42.680;23.266;2022-12-20T00:41:38;8.32;;;5.53;;
76425;SDS011;65258;42.680;23.266;2022-12-20T00:44:04;10.93;;;5.07;;
76425;SDS011;65258;42.680;23.266;2022-12-20T00:46:29;14.85;;;4.72;;
76425;SDS011;65258;42.680;23.266;2022-12-20T00:48:57;10.57;;;5.68;;
76425;SDS011;65258;42.680;23.266;2022-12-20T00:51:24;8.77;;;3.97;;
76425;SDS011;65258;42.680;23.266;2022-12-20T00:53:53;8.98;;;4.80;;
76425;SDS011;65258;42.680;23.266;2022-12-20T00:56:19;9.23;;;4.43;;
76425;SDS011;65258;42.680;23.266;2022-12-20T00:58:45;10.32;;;4.47;;
76425;SDS011;65258;42.680;23.266;2022-12-20T01:01:21;8.45;;;4.07;;
76425;SDS011;65258;42.680;23.266;2022-12-20T01:03:49;12.00;;;5.00;;
76425;SDS011;65258;42.680;23.266;2022-12-20T01:06:15;7.57;;;4.30;;
76425;SDS011;65258;42.680;23.266;2022-12-20T01:08:41;7.88;;;3.97;;
76425;SDS011;65258;42.680;23.266;2022-12-20T01:11:15;7.88;;;3.53;;
76425;SDS011;65258;42.680;23.266;2022-12-20T01:13:44;9.00;;;3.88;;
76425;SDS011;65258;42.680;23.266;2022-12-20T01:16:13;12.10;;;5.05;;
76425;SDS011;65258;42.680;23.266;2022-12-20T01:18:41;9.32;;;5.15;;
76425;SDS011;65258;42.680;23.266;2022-12-20T01:21:08;11.35;;;4.95;;
76425;SDS011;65258;42.680;23.266;2022-12-20T01:23:36;6.00;;;2.47;;
76425;SDS011;65258;42.680;23.266;2022-12-20T01:26:03;9.73;;;4.53;;
76425;SDS011;65258;42.680;23.266;2022-12-20T01:28:33;9.98;;;3.70;;
76425;SDS011;65258;42.680;23.266;2022-12-20T01:30:59;8.48;;;4.10;;
76425;SDS011;65258;42.680;23.266;2022-12-20T01:33:25;8.85;;;4.78;;
76425;SDS011;65258;42.680;23.266;2022-12-20T01:35:59;8.70;;;4.80;;
76425;SDS011;65258;42.680;23.266;2022-12-20T01:38:29;6.68;;;3.30;;
76425;SDS011;65258;42.680;23.266;2022-12-20T01:40:56;11.25;;;4.93;;
76425;SDS011;65258;42.680;23.266;2022-12-20T01:43:22;4.63;;;2.92;;
76425;SDS011;65258;42.680;23.266;2022-12-20T01:45:49;9.38;;;4.65;;
76425;SDS011;65258;42.680;23.266;2022-12-20T01:48:17;10.73;;;3.95;;
76425;SDS011;65258;42.680;23.266;2022-12-20T01:50:46;7.97;;;3.88;;
76425;SDS011;65258;42.680;23.266;2022-12-20T01:53:13;10.60;;;4.82;;
76425;SDS011;65258;42.680;23.266;2022-12-20T01:55:41;15.15;;;5.25;;
76425;SDS011;65258;42.680;23.266;2022-12-20T01:58:07;10.82;;;4.70;;
76425;SDS011;65258;42.680;23.266;2022-12-20T02:00:36;7.60;;;3.33;;
76425;SDS011;65258;42.680;23.266;2022-12-20T02:03:06;3.72;;;2.33;;
76425;SDS011;65258;42.680;23.266;2022-12-20T02:05:34;9.82;;;4.60;;
76425;SDS011;65258;42.680;23.266;2022-12-20T02:08:01;10.55;;;4.53;;
76425;SDS011;65258;42.680;23.266;2022-12-20T02:10:33;12.48;;;4.95;;
76425;SDS011;65258;42.680;23.266;2022-12-20T02:13:20;10.43;;;4.28;;
76425;SDS011;65258;42.680;23.266;2022-12-20T02:15:55;7.85;;;4.20;;
76425;SDS011;65258;42.680;23.266;2022-12-20T02:26:17;8.68;;;4.43;;
76425;SDS011;65258;42.680;23.266;2022-12-20T02:31:24;10.90;;;5.43;;
76425;SDS011;65258;42.680;23.266;2022-12-20T02:36:22;11.68;;;5.88;;
76425;SDS011;65258;42.680;23.266;2022-12-20T02:38:49;9.13;;;3.83;;
76425;SDS011;65258;42.680;23.266;2022-12-20T02:41:26;9.70;;;5.15;;
76425;SDS011;65258;42.680;23.266;2022-12-20T02:44:00;16.58;;;4.57;;
76425;SDS011;65258;42.680;23.266;2022-12-20T02:46:48;12.75;;;4.45;;
76425;SDS011;65258;42.680;23.266;2022-12-20T02:49:18;7.85;;;4.40;;
76425;SDS011;65258;42.680;23.266;2022-12-20T02:51:48;11.60;;;5.57;;
76425;SDS011;65258;42.680;23.266;2022-12-20T02:54:16;11.18;;;5.30;;
76425;SDS011;65258;42.680;23.266;2022-12-20T02:56:46;7.60;;;3.45;;
76425;SDS011;65258;42.680;23.266;2022-12-20T02:59:28;8.18;;;4.80;;
76425;SDS011;65258;42.680;23.266;2022-12-20T03:02:01;15.02;;;5.85;;
76425;SDS011;65258;42.680;23.266;2022-12-20T03:04:28;7.45;;;4.15;;
76425;SDS011;65258;42.680;23.266;2022-12-20T03:06:58;11.13;;;5.75;;
76425;SDS011;65258;42.680;23.266;2022-12-20T03:09:29;11.45;;;4.95;;
76425;SDS011;65258;42.680;23.266;2022-12-20T03:11:55;9.05;;;5.10;;
76425;SDS011;65258;42.680;23.266;2022-12-20T03:14:21;9.43;;;4.93;;
76425;SDS011;65258;42.680;23.266;2022-12-20T03:16:49;11.15;;;4.93;;
76425;SDS011;65258;42.680;23.266;2022-12-20T03:19:14;10.43;;;4.65;;
76425;SDS011;65258;42.680;23.266;2022-12-20T03:21:40;11.98;;;5.30;;
76425;SDS011;65258;42.680;23.266;2022-12-20T03:24:06;11.10;;;5.57;;
76425;SDS011;65258;42.680;23.266;2022-12-20T03:26:32;13.25;;;5.97;;
76425;SDS011;65258;42.680;23.266;2022-12-20T03:28:59;9.73;;;4.85;;
76425;SDS011;65258;42.680;23.266;2022-12-20T03:31:26;6.85;;;3.58;;
76425;SDS011;65258;42.680;23.266;2022-12-20T03:33:53;10.48;;;4.65;;
76425;SDS011;65258;42.680;23.266;2022-12-20T03:36:19;10.40;;;5.50;;
76425;SDS011;65258;42.680;23.266;2022-12-20T03:38:50;11.48;;;5.10;;
76425;SDS011;65258;42.680;23.266;2022-12-20T03:41:16;13.65;;;5.75;;
76425;SDS011;65258;42.680;23.266;2022-12-20T03:43:41;11.43;;;5.45;;
76425;SDS011;65258;42.680;23.266;2022-12-20T03:46:07;11.05;;;5.70;;
76425;SDS011;65258;42.680;23.266;2022-12-20T03:48:36;8.13;;;4.47;;
76425;SDS011;65258;42.680;23.266;2022-12-20T03:51:03;12.13;;;4.97;;
76425;SDS011;65258;42.680;23.266;2022-12-20T03:53:29;10.98;;;5.35;;
76425;SDS011;65258;42.680;23.266;2022-12-20T03:55:55;13.88;;;5.10;;
76425;SDS011;65258;42.680;23.266;2022-12-20T03:58:21;12.70;;;5.35;;
76425;SDS011;65258;42.680;23.266;2022-12-20T04:00:47;13.02;;;5.63;;
76425;SDS011;65258;42.680;23.266;2022-12-20T04:03:35;12.52;;;6.03;;
76425;SDS011;65258;42.680;23.266;2022-12-20T04:06:02;15.68;;;6.25;;
76425;SDS011;65258;42.680;23.266;2022-12-20T04:08:27;11.02;;;5.68;;
76425;SDS011;65258;42.680;23.266;2022-12-20T04:10:53;11.00;;;5.85;;
76425;SDS011;65258;42.680;23.266;2022-12-20T04:13:44;9.50;;;5.45;;
76425;SDS011;65258;42.680;23.266;2022-12-20T04:16:12;11.75;;;5.82;;
76425;SDS011;65258;42.680;23.266;2022-12-20T04:18:40;11.43;;;6.22;;
76425;SDS011;65258;42.680;23.266;2022-12-20T04:21:06;13.70;;;6.25;;
76425;SDS011;65258;42.680;23.266;2022-12-20T04:23:36;65.57;;;20.02;;
76425;SDS011;65258;42.680;23.266;2022-12-20T04:26:04;43.83;;;13.40;;
76425;SDS011;65258;42.680;23.266;2022-12-20T04:28:32;33.78;;;11.43;;
76425;SDS011;65258;42.680;23.266;2022-12-20T04:30:59;29.77;;;10.68;;
76425;SDS011;65258;42.680;23.266;2022-12-20T04:33:27;28.33;;;10.15;;
76425;SDS011;65258;42.680;23.266;2022-12-20T04:35:53;24.55;;;10.13;;
76425;SDS011;65258;42.680;23.266;2022-12-20T04:38:21;27.27;;;9.75;;
76425;SDS011;65258;42.680;23.266;2022-12-20T04:40:48;20.45;;;8.75;;
76425;SDS011;65258;42.680;23.266;2022-12-20T04:43:15;13.32;;;7.55;;
76425;SDS011;65258;42.680;23.266;2022-12-20T04:45:41;23.95;;;8.77;;
76425;SDS011;65258;42.680;23.266;2022-12-20T04:50:37;20.27;;;7.85;;
76425;SDS011;65258;42.680;23.266;2022-12-20T04:53:02;16.50;;;7.68;;
76425;SDS011;65258;42.680;23.266;2022-12-20T04:55:48;15.77;;;7.72;;
76425;SDS011;65258;42.680;23.266;2022-12-20T04:58:14;17.50;;;8.60;;
76425;SDS011;65258;42.680;23.266;2022-12-20T05:00:42;14.98;;;7.57;;
76425;SDS011;65258;42.680;23.266;2022-12-20T05:03:20;14.30;;;7.47;;
76425;SDS011;65258;42.680;23.266;2022-12-20T05:08:13;14.35;;;6.97;;
76425;SDS011;65258;42.680;23.266;2022-12-20T05:10:39;17.30;;;8.07;;
76425;SDS011;65258;42.680;23.266;2022-12-20T05:13:05;11.77;;;6.63;;
76425;SDS011;65258;42.680;23.266;2022-12-20T05:15:36;13.80;;;6.07;;
76425;SDS011;65258;42.680;23.266;2022-12-20T05:18:02;15.20;;;7.88;;
76425;SDS011;65258;42.680;23.266;2022-12-20T05:20:38;16.63;;;7.63;;
76425;SDS011;65258;42.680;23.266;2022-12-20T05:23:04;16.55;;;7.18;;
76425;SDS011;65258;42.680;23.266;2022-12-20T05:26:12;11.07;;;4.80;;
76425;SDS011;65258;42.680;23.266;2022-12-20T05:28:44;16.42;;;6.20;;
76425;SDS011;65258;42.680;23.266;2022-12-20T05:31:10;12.50;;;5.82;;
76425;SDS011;65258;42.680;23.266;2022-12-20T05:33:36;10.98;;;5.78;;
76425;SDS011;65258;42.680;23.266;2022-12-20T05:36:03;11.75;;;5.72;;
76425;SDS011;65258;42.680;23.266;2022-12-20T05:38:28;16.13;;;6.50;;
76425;SDS011;65258;42.680;23.266;2022-12-20T05:40:54;13.32;;;6.32;;
76425;SDS011;65258;42.680;23.266;2022-12-20T05:43:20;13.95;;;6.47;;
76425;SDS011;65258;42.680;23.266;2022-12-20T05:45:47;11.35;;;5.97;;
76425;SDS011;65258;42.680;23.266;2022-12-20T05:48:16;14.60;;;6.90;;
76425;SDS011;65258;42.680;23.266;2022-12-20T05:50:45;15.23;;;7.03;;
76425;SDS011;65258;42.680;23.266;2022-12-20T05:53:31;15.45;;;5.85;;
76425;SDS011;65258;42.680;23.266;2022-12-20T05:56:00;12.88;;;7.18;;
76425;SDS011;65258;42.680;23.266;2022-12-20T05:58:30;13.55;;;7.53;;
76425;SDS011;65258;42.680;23.266;2022-12-20T06:01:04;11.30;;;5.90;;
76425;SDS011;65258;42.680;23.266;2022-12-20T06:03:35;14.95;;;7.53;;
76425;SDS011;65258;42.680;23.266;2022-12-20T06:06:04;16.00;;;8.00;;
76425;SDS011;65258;42.680;23.266;2022-12-20T06:08:31;14.50;;;7.35;;
76425;SDS011;65258;42.680;23.266;2022-12-20T06:10:59;19.98;;;7.82;;
76425;SDS011;65258;42.680;23.266;2022-12-20T06:13:26;19.92;;;9.00;;
76425;SDS011;65258;42.680;23.266;2022-12-20T06:15:52;22.90;;;11.60;;
76425;SDS011;65258;42.680;23.266;2022-12-20T06:18:19;21.10;;;11.75;;
76425;SDS011;65258;42.680;23.266;2022-12-20T06:20:49;24.20;;;11.30;;
76425;SDS011;65258;42.680;23.266;2022-12-20T06:23:19;28.00;;;13.30;;
76425;SDS011;65258;42.680;23.266;2022-12-20T06:25:54;24.85;;;11.40;;
76425;SDS011;65258;42.680;23.266;2022-12-20T06:28:20;23.83;;;10.07;;
76425;SDS011;65258;42.680;23.266;2022-12-20T06:30:54;25.42;;;12.02;;
76425;SDS011;65258;42.680;23.266;2022-12-20T06:33:35;18.10;;;9.05;;
76425;SDS011;65258;42.680;23.266;2022-12-20T06:36:02;20.90;;;10.73;;
76425;SDS011;65258;42.680;23.266;2022-12-20T06:38:28;19.30;;;8.90;;
76425;SDS011;65258;42.680;23.266;2022-12-20T06:40:54;20.60;;;10.30;;
76425;SDS011;65258;42.680;23.266;2022-12-20T06:43:20;19.15;;;9.50;;
76425;SDS011;65258;42.680;23.266;2022-12-20T06:45:46;18.73;;;9.65;;
76425;SDS011;65258;42.680;23.266;2022-12-20T06:48:12;12.65;;;7.22;;
76425;SDS011;65258;42.680;23.266;2022-12-20T06:50:38;19.88;;;8.80;;
76425;SDS011;65258;42.680;23.266;2022-12-20T06:53:05;15.20;;;7.10;;
76425;SDS011;65258;42.680;23.266;2022-12-20T06:55:31;18.20;;;7.60;;
76425;SDS011;65258;42.680;23.266;2022-12-20T06:57:56;11.93;;;6.30;;
76425;SDS011;65258;42.680;23.266;2022-12-20T07:00:23;16.17;;;7.22;;
76425;SDS011;65258;42.680;23.266;2022-12-20T07:07:42;16.88;;;7.25;;
76425;SDS011;65258;42.680;23.266;2022-12-20T07:10:08;13.23;;;6.55;;
76425;SDS011;65258;42.680;23.266;2022-12-20T07:12:34;10.48;;;5.90;;
76425;SDS011;65258;42.680;23.266;2022-12-20T07:15:00;14.35;;;8.43;;
76425;SDS011;65258;42.680;23.266;2022-12-20T07:17:25;60.30;;;22.38;;
76425;SDS011;65258;42.680;23.266;2022-12-20T07:19:51;35.70;;;14.25;;
76425;SDS011;65258;42.680;23.266;2022-12-20T07:22:16;72.80;;;30.65;;
76425;SDS011;65258;42.680;23.266;2022-12-20T07:24:42;18.17;;;7.60;;
76425;SDS011;65258;42.680;23.266;2022-12-20T07:27:09;27.40;;;12.75;;
76425;SDS011;65258;42.680;23.266;2022-12-20T07:29:35;43.50;;;17.98;;
76425;SDS011;65258;42.680;23.266;2022-12-20T07:32:01;24.02;;;10.73;;
76425;SDS011;65258;42.680;23.266;2022-12-20T07:34:27;13.15;;;6.35;;
76425;SDS011;65258;42.680;23.266;2022-12-20T07:36:52;15.98;;;7.50;;
76425;SDS011;65258;42.680;23.266;2022-12-20T07:39:18;12.30;;;5.97;;
76425;SDS011;65258;42.680;23.266;2022-12-20T07:41:44;19.92;;;8.98;;
76425;SDS011;65258;42.680;23.266;2022-12-20T07:44:14;12.65;;;6.55;;
76425;SDS011;65258;42.680;23.266;2022-12-20T07:46:40;38.65;;;18.00;;
76425;SDS011;65258;42.680;23.266;2022-12-20T07:49:05;18.70;;;8.25;;
76425;SDS011;65258;42.680;23.266;2022-12-20T07:51:33;12.88;;;6.93;;
76425;SDS011;65258;42.680;23.266;2022-12-20T07:54:10;39.45;;;15.63;;
76425;SDS011;65258;42.680;23.266;2022-12-20T07:56:40;15.20;;;7.90;;
76425;SDS011;65258;42.680;23.266;2022-12-20T07:59:10;19.73;;;9.02;;
76425;SDS011;65258;42.680;23.266;2022-12-20T08:01:38;13.93;;;7.70;;
76425;SDS011;65258;42.680;23.266;2022-12-20T08:04:07;13.80;;;6.40;;
76425;SDS011;65258;42.680;23.266;2022-12-20T08:06:37;13.52;;;6.32;;
76425;SDS011;65258;42.680;23.266;2022-12-20T08:09:04;10.80;;;6.28;;
76425;SDS011;65258;42.680;23.266;2022-12-20T08:11:31;11.20;;;6.32;;
76425;SDS011;65258;42.680;23.266;2022-12-20T08:13:58;19.58;;;8.05;;
76425;SDS011;65258;42.680;23.266;2022-12-20T08:16:24;13.40;;;7.28;;
76425;SDS011;65258;42.680;23.266;2022-12-20T08:18:49;19.48;;;8.27;;
76425;SDS011;65258;42.680;23.266;2022-12-20T08:21:15;17.02;;;7.65;;
76425;SDS011;65258;42.680;23.266;2022-12-20T08:23:40;11.45;;;6.45;;
76425;SDS011;65258;42.680;23.266;2022-12-20T08:26:06;11.60;;;6.90;;
76425;SDS011;65258;42.680;23.266;2022-12-20T08:28:32;10.48;;;6.45;;
76425;SDS011;65258;42.680;23.266;2022-12-20T08:31:01;13.60;;;6.40;;
76425;SDS011;65258;42.680;23.266;2022-12-20T08:33:28;16.88;;;7.80;;
76425;SDS011;65258;42.680;23.266;2022-12-20T08:35:58;15.20;;;7.18;;
76425;SDS011;65258;42.680;23.266;2022-12-20T08:38:28;11.20;;;7.07;;
76425;SDS011;65258;42.680;23.266;2022-12-20T08:40:55;14.85;;;7.10;;
76425;SDS011;65258;42.680;23.266;2022-12-20T08:43:26;12.90;;;7.10;;
76425;SDS011;65258;42.680;23.266;2022-12-20T08:45:52;13.57;;;6.82;;
76425;SDS011;65258;42.680;23.266;2022-12-20T08:50:44;14.93;;;7.57;;
76425;SDS011;65258;42.680;23.266;2022-12-20T08:53:10;16.23;;;7.47;;
76425;SDS011;65258;42.680;23.266;2022-12-20T08:55:35;14.02;;;7.22;;
76425;SDS011;65258;42.680;23.266;2022-12-20T08:58:01;16.15;;;7.80;;
76425;SDS011;65258;42.680;23.266;2022-12-20T09:00:26;15.07;;;8.00;;
76425;SDS011;65258;42.680;23.266;2022-12-20T09:02:52;17.90;;;7.75;;
76425;SDS011;65258;42.680;23.266;2022-12-20T09:05:19;14.13;;;7.25;;
76425;SDS011;65258;42.680;23.266;2022-12-20T09:07:44;16.98;;;7.57;;
76425;SDS011;65258;42.680;23.266;2022-12-20T09:10:10;16.95;;;8.32;;
76425;SDS011;65258;42.680;23.266;2022-12-20T09:12:37;12.82;;;7.13;;
76425;SDS011;65258;42.680;23.266;2022-12-20T09:15:03;11.15;;;6.75;;
76425;SDS011;65258;42.680;23.266;2022-12-20T09:17:30;15.00;;;6.55;;
76425;SDS011;65258;42.680;23.266;2022-12-20T09:19:56;17.13;;;7.57;;
76425;SDS011;65258;42.680;23.266;2022-12-20T09:22:22;14.30;;;7.30;;
76425;SDS011;65258;42.680;23.266;2022-12-20T09:24:47;11.48;;;6.68;;
76425;SDS011;65258;42.680;23.266;2022-12-20T09:27:13;13.57;;;7.72;;
76425;SDS011;65258;42.680;23.266;2022-12-20T09:29:39;12.90;;;7.05;;
76425;SDS011;65258;42.680;23.266;2022-12-20T09:32:04;14.93;;;6.95;;
76425;SDS011;65258;42.680;23.266;2022-12-20T09:34:30;15.13;;;8.02;;
76425;SDS011;65258;42.680;23.266;2022-12-20T09:36:56;14.23;;;7.85;;
76425;SDS011;65258;42.680;23.266;2022-12-20T09:39:22;13.95;;;7.32;;
76425;SDS011;65258;42.680;23.266;2022-12-20T09:41:47;15.18;;;8.60;;
76425;SDS011;65258;42.680;23.266;2022-12-20T09:46:53;15.18;;;6.85;;
76425;SDS011;65258;42.680;23.266;2022-12-20T09:49:26;12.48;;;6.90;;
76425;SDS011;65258;42.680;23.266;2022-12-20T09:54:54;16.40;;;6.90;;
76425;SDS011;65258;42.680;23.266;2022-12-20T10:00:27;12.50;;;6.72;;
76425;SDS011;65258;42.680;23.266;2022-12-20T10:02:54;12.95;;;8.10;;
76425;SDS011;65258;42.680;23.266;2022-12-20T10:13:49;9.80;;;5.85;;
76425;SDS011;65258;42.680;23.266;2022-12-20T10:24:38;12.25;;;6.65;;
76425;SDS011;65258;42.680;23.266;2022-12-20T10:29:44;12.80;;;6.18;;
76425;SDS011;65258;42.680;23.266;2022-12-20T10:32:13;13.43;;;6.43;;
76425;SDS011;65258;42.680;23.266;2022-12-20T10:34:46;14.85;;;6.55;;
76425;SDS011;65258;42.680;23.266;2022-12-20T10:37:19;14.40;;;6.70;;
76425;SDS011;65258;42.680;23.266;2022-12-20T10:39:48;14.98;;;6.88;;
76425;SDS011;65258;42.680;23.266;2022-12-20T10:44:51;11.25;;;6.13;;
76425;SDS011;65258;42.680;23.266;2022-12-20T10:47:23;13.70;;;6.57;;
76425;SDS011;65258;42.680;23.266;2022-12-20T10:55:49;14.32;;;7.18;;
76425;SDS011;65258;42.680;23.266;2022-12-20T11:00:45;14.55;;;7.20;;
76425;SDS011;65258;42.680;23.266;2022-12-20T11:05:56;14.32;;;7.05;;
76425;SDS011;65258;42.680;23.266;2022-12-20T11:08:24;14.25;;;6.53;;
76425;SDS011;65258;42.680;23.266;2022-12-20T11:11:08;16.38;;;6.35;;
76425;SDS011;65258;42.680;23.266;2022-12-20T11:13:49;14.30;;;5.82;;
76425;SDS011;65258;42.680;23.266;2022-12-20T11:22:17;12.07;;;6.38;;
76425;SDS011;65258;42.680;23.266;2022-12-20T11:31:00;9.40;;;5.90;;
76425;SDS011;65258;42.680;23.266;2022-12-20T11:42:24;14.10;;;7.28;;
76425;SDS011;65258;42.680;23.266;2022-12-20T11:48:06;18.00;;;8.48;;
76425;SDS011;65258;42.680;23.266;2022-12-20T11:53:38;14.23;;;7.05;;
76425;SDS011;65258;42.680;23.266;2022-12-20T11:56:09;11.25;;;6.72;;
76425;SDS011;65258;42.680;23.266;2022-12-20T12:01:13;15.10;;;7.70;;
76425;SDS011;65258;42.680;23.266;2022-12-20T12:04:02;18.00;;;8.27;;
76425;SDS011;65258;42.680;23.266;2022-12-20T12:06:33;15.45;;;8.88;;
76425;SDS011;65258;42.680;23.266;2022-12-20T12:12:41;15.15;;;8.43;;
76425;SDS011;65258;42.680;23.266;2022-12-20T12:15:04;10.80;;;6.47;;
76425;SDS011;65258;42.680;23.266;2022-12-20T12:28:52;11.85;;;6.97;;
76425;SDS011;65258;42.680;23.266;2022-12-20T12:31:21;12.05;;;7.30;;
76425;SDS011;65258;42.680;23.266;2022-12-20T12:39:56;11.98;;;6.85;;
76425;SDS011;65258;42.680;23.266;2022-12-20T12:45:29;15.02;;;6.57;;
76425;SDS011;65258;42.680;23.266;2022-12-20T12:48:14;12.50;;;7.47;;
76425;SDS011;65258;42.680;23.266;2022-12-20T12:50:52;14.32;;;7.10;;
76425;SDS011;65258;42.680;23.266;2022-12-20T12:55:49;13.00;;;5.88;;
76425;SDS011;65258;42.680;23.266;2022-12-20T13:00:55;12.77;;;6.53;;
76425;SDS011;65258;42.680;23.266;2022-12-20T13:24:37;15.80;;;6.95;;
76425;SDS011;65258;42.680;23.266;2022-12-20T13:37:55;13.27;;;5.75;;
76425;SDS011;65258;42.680;23.266;2022-12-20T13:40:45;10.88;;;5.38;;
76425;SDS011;65258;42.680;23.266;2022-12-20T13:46:11;10.70;;;5.50;;
76425;SDS011;65258;42.680;23.266;2022-12-20T13:51:15;10.50;;;5.10;;
76425;SDS011;65258;42.680;23.266;2022-12-20T13:58:52;10.85;;;6.18;;
76425;SDS011;65258;42.680;23.266;2022-12-20T14:01:20;10.25;;;6.18;;
76425;SDS011;65258;42.680;23.266;2022-12-20T14:03:47;14.40;;;7.32;;
76425;SDS011;65258;42.680;23.266;2022-12-20T14:06:13;15.18;;;6.93;;
76425;SDS011;65258;42.680;23.266;2022-12-20T14:08:42;15.15;;;7.75;;
76425;SDS011;65258;42.680;23.266;2022-12-20T14:11:12;17.45;;;8.02;;
76425;SDS011;65258;42.680;23.266;2022-12-20T14:13:50;14.18;;;7.03;;
76425;SDS011;65258;42.680;23.266;2022-12-20T14:16:17;14.15;;;7.05;;
76425;SDS011;65258;42.680;23.266;2022-12-20T14:21:22;15.90;;;8.18;;
76425;SDS011;65258;42.680;23.266;2022-12-20T14:23:49;13.20;;;7.30;;
76425;SDS011;65258;42.680;23.266;2022-12-20T14:26:19;15.57;;;6.82;;
76425;SDS011;65258;42.680;23.266;2022-12-20T14:28:49;18.90;;;7.80;;
76425;SDS011;65258;42.680;23.266;2022-12-20T14:31:21;13.65;;;7.45;;
76425;SDS011;65258;42.680;23.266;2022-12-20T14:34:03;15.07;;;7.55;;
76425;SDS011;65258;42.680;23.266;2022-12-20T14:36:44;17.30;;;8.68;;
76425;SDS011;65258;42.680;23.266;2022-12-20T14:39:52;16.83;;;8.43;;
76425;SDS011;65258;42.680;23.266;2022-12-20T14:42:17;15.50;;;7.40;;
76425;SDS011;65258;42.680;23.266;2022-12-20T14:44:45;11.60;;;7.15;;
76425;SDS011;65258;42.680;23.266;2022-12-20T14:47:19;21.20;;;10.55;;
76425;SDS011;65258;42.680;23.266;2022-12-20T14:49:58;17.10;;;7.47;;
76425;SDS011;65258;42.680;23.266;2022-12-20T14:52:33;16.13;;;8.38;;
76425;SDS011;65258;42.680;23.266;2022-12-20T14:55:01;13.77;;;7.57;;
76425;SDS011;65258;42.680;23.266;2022-12-20T15:13:35;14.68;;;6.53;;
76425;SDS011;65258;42.680;23.266;2022-12-20T15:16:16;13.80;;;6.57;;
76425;SDS011;65258;42.680;23.266;2022-12-20T15:18:44;13.10;;;6.95;;
76425;SDS011;65258;42.680;23.266;2022-12-20T15:21:14;21.15;;;8.90;;
76425;SDS011;65258;42.680;23.266;2022-12-20T15:23:55;15.18;;;6.82;;
76425;SDS011;65258;42.680;23.266;2022-12-20T15:26:22;28.83;;;10.60;;
76425;SDS011;65258;42.680;23.266;2022-12-20T15:28:49;16.23;;;8.43;;
76425;SDS011;65258;42.680;23.266;2022-12-20T15:31:17;19.17;;;7.72;;
76425;SDS011;65258;42.680;23.266;2022-12-20T15:33:45;20.30;;;9.18;;
76425;SDS011;65258;42.680;23.266;2022-12-20T15:36:18;20.23;;;8.95;;
76425;SDS011;65258;42.680;23.266;2022-12-20T15:38:46;20.45;;;9.95;;
76425;SDS011;65258;42.680;23.266;2022-12-20T15:41:22;22.48;;;12.07;;
76425;SDS011;65258;42.680;23.266;2022-12-20T15:43:51;35.45;;;13.57;;
76425;SDS011;65258;42.680;23.266;2022-12-20T15:46:19;48.17;;;23.55;;
76425;SDS011;65258;42.680;23.266;2022-12-20T15:48:45;49.00;;;23.27;;
76425;SDS011;65258;42.680;23.266;2022-12-20T15:51:13;41.28;;;18.98;;
76425;SDS011;65258;42.680;23.266;2022-12-20T15:53:44;44.10;;;20.00;;
76425;SDS011;65258;42.680;23.266;2022-12-20T15:56:20;45.50;;;21.80;;
76425;SDS011;65258;42.680;23.266;2022-12-20T15:58:46;47.67;;;21.67;;
76425;SDS011;65258;42.680;23.266;2022-12-20T16:01:13;49.70;;;23.95;;
76425;SDS011;65258;42.680;23.266;2022-12-20T16:03:44;48.42;;;24.23;;
76425;SDS011;65258;42.680;23.266;2022-12-20T16:06:10;48.45;;;22.50;;
76425;SDS011;65258;42.680;23.266;2022-12-20T16:08:39;45.67;;;20.63;;
76425;SDS011;65258;42.680;23.266;2022-12-20T16:11:06;45.78;;;25.35;;
76425;SDS011;65258;42.680;23.266;2022-12-20T16:13:38;54.55;;;26.38;;
76425;SDS011;65258;42.680;23.266;2022-12-20T16:16:03;57.25;;;28.30;;
76425;SDS011;65258;42.680;23.266;2022-12-20T16:18:30;54.10;;;25.77;;
76425;SDS011;65258;42.680;23.266;2022-12-20T16:20:56;47.90;;;26.00;;
76425;SDS011;65258;42.680;23.266;2022-12-20T16:23:21;49.85;;;25.73;;
76425;SDS011;65258;42.680;23.266;2022-12-20T16:25:47;44.13;;;25.10;;
76425;SDS011;65258;42.680;23.266;2022-12-20T16:28:14;52.40;;;24.75;;
76425;SDS011;65258;42.680;23.266;2022-12-20T16:30:41;50.85;;;23.55;;
76425;SDS011;65258;42.680;23.266;2022-12-20T16:33:12;49.85;;;25.60;;
76425;SDS011;65258;42.680;23.266;2022-12-20T16:35:43;45.78;;;22.80;;
76425;SDS011;65258;42.680;23.266;2022-12-20T16:38:09;45.88;;;23.55;;
76425;SDS011;65258;42.680;23.266;2022-12-20T16:40:34;50.53;;;23.90;;
76425;SDS011;65258;42.680;23.266;2022-12-20T16:43:00;41.00;;;20.38;;
76425;SDS011;65258;42.680;23.266;2022-12-20T16:45:27;49.95;;;24.00;;
76425;SDS011;65258;42.680;23.266;2022-12-20T16:47:54;58.22;;;27.42;;
76425;SDS011;65258;42.680;23.266;2022-12-20T16:50:21;48.78;;;23.65;;
76425;SDS011;65258;42.680;23.266;2022-12-20T16:52:48;49.47;;;24.85;;
76425;SDS011;65258;42.680;23.266;2022-12-20T16:55:19;38.03;;;20.88;;
76425;SDS011;65258;42.680;23.266;2022-12-20T16:57:46;43.70;;;21.45;;
76425;SDS011;65258;42.680;23.266;2022-12-20T17:00:17;43.00;;;21.20;;
76425;SDS011;65258;42.680;23.266;2022-12-20T17:02:47;36.28;;;21.70;;
76425;SDS011;65258;42.680;23.266;2022-12-20T17:05:17;41.40;;;20.75;;
76425;SDS011;65258;42.680;23.266;2022-12-20T17:07:46;50.58;;;23.30;;
76425;SDS011;65258;42.680;23.266;2022-12-20T17:10:11;37.97;;;21.63;;
76425;SDS011;65258;42.680;23.266;2022-12-20T17:12:37;45.17;;;22.05;;
76425;SDS011;65258;42.680;23.266;2022-12-20T17:15:03;39.75;;;21.90;;
76425;SDS011;65258;42.680;23.266;2022-12-20T17:17:29;55.67;;;25.48;;
76425;SDS011;65258;42.680;23.266;2022-12-20T17:19:54;63.50;;;29.00;;
76425;SDS011;65258;42.680;23.266;2022-12-20T17:22:20;58.65;;;29.02;;
76425;SDS011;65258;42.680;23.266;2022-12-20T17:24:46;57.33;;;26.83;;
76425;SDS011;65258;42.680;23.266;2022-12-20T17:27:11;56.00;;;28.00;;
76425;SDS011;65258;42.680;23.266;2022-12-20T17:29:37;60.55;;;28.35;;
76425;SDS011;65258;42.680;23.266;2022-12-20T17:32:08;74.68;;;33.60;;
76425;SDS011;65258;42.680;23.266;2022-12-20T17:34:44;64.68;;;27.70;;
76425;SDS011;65258;42.680;23.266;2022-12-20T17:37:11;58.33;;;26.67;;